Time;durP1;ratioP1;P1;durP2;ratioP2;P2;SDS_P1;SDS_P2;PMS_P1;PMS_P2;Temp;Humidity;BMP_temperature;BMP_pressure;BME280_temperature;BME280_humidity;BME280_pressure;Samples;Min_cycle;Max_cycle;Signal;HPM_P1;HPM_P2
2022/10/16 00:01:16;;;;;;;3.13;2.13;;;13.30;99.90;;;;;;4989522;28;20607;-84
2022/10/16 00:03:45;;;;;;;4.17;2.23;;;13.30;99.90;;;;;;4987443;28;20204;-83
2022/10/16 00:06:13;;;;;;;4.73;2.37;;;13.30;99.90;;;;;;4989197;28;20239;-85
2022/10/16 00:08:41;;;;;;;4.70;2.13;;;13.20;99.90;;;;;;5005509;28;20215;-85
2022/10/16 00:11:10;;;;;;;4.67;2.53;;;13.20;99.90;;;;;;4966695;28;20720;-85
2022/10/16 00:13:38;;;;;;;3.33;2.00;;;13.20;99.90;;;;;;4987473;28;20237;-85
2022/10/16 00:16:06;;;;;;;3.03;2.23;;;13.20;99.90;;;;;;4988159;28;20588;-85
2022/10/16 00:18:33;;;;;;;3.47;2.23;;;13.20;99.90;;;;;;4989920;28;20296;-86
2022/10/16 00:21:15;;;;;;;5.03;3.40;;;13.20;99.90;;;;;;4990931;28;20210;-85
2022/10/16 00:23:43;;;;;;;6.33;2.63;;;13.20;99.90;;;;;;4989922;28;20207;-86
2022/10/16 00:26:14;;;;;;;2.97;2.10;;;13.10;99.90;;;;;;4974286;28;20297;-85
2022/10/16 00:28:41;;;;;;;5.40;2.43;;;13.10;99.90;;;;;;4984983;28;20202;-85
2022/10/16 00:31:10;;;;;;;6.53;3.00;;;13.10;99.90;;;;;;4988793;28;20209;-85
2022/10/16 00:33:39;;;;;;;5.27;2.57;;;13.10;99.90;;;;;;4987464;28;20232;-85
2022/10/16 00:36:07;;;;;;;3.83;2.00;;;13.10;99.90;;;;;;4986028;28;20224;-84
2022/10/16 00:38:34;;;;;;;5.37;2.20;;;13.00;99.90;;;;;;5005330;28;20303;-85
2022/10/16 00:41:01;;;;;;;6.77;2.50;;;13.10;99.90;;;;;;5009442;28;20202;-84
2022/10/16 00:43:40;;;;;;;4.93;2.13;;;13.10;99.90;;;;;;5007250;28;20918;-84
2022/10/16 00:46:40;;;;;;;4.70;2.50;;;13.10;99.90;;;;;;4992031;28;20212;-84
2022/10/16 00:49:19;;;;;;;3.00;2.30;;;13.20;99.90;;;;;;4988812;28;20238;-85
2022/10/16 00:51:49;;;;;;;3.40;2.23;;;13.20;99.90;;;;;;4992759;28;20214;-85
2022/10/16 00:54:31;;;;;;;4.10;2.80;;;13.10;99.90;;;;;;4986847;28;20315;-85
2022/10/16 00:57:04;;;;;;;4.73;3.00;;;13.20;99.90;;;;;;4986529;28;20209;-85
2022/10/16 00:59:36;;;;;;;4.87;2.60;;;13.10;99.90;;;;;;4980797;28;20194;-84
2022/10/16 01:02:04;;;;;;;7.43;3.33;;;13.10;99.90;;;;;;4992214;28;20200;-85
2022/10/16 01:04:35;;;;;;;4.10;2.60;;;13.20;99.90;;;;;;4994392;28;20684;-84
2022/10/16 01:07:25;;;;;;;9.93;3.07;;;13.10;99.90;;;;;;5008686;28;20595;-86
2022/10/16 01:09:59;;;;;;;6.07;2.67;;;13.20;99.90;;;;;;4993814;28;20216;-84
2022/10/16 01:12:40;;;;;;;4.07;2.73;;;13.20;99.90;;;;;;4993857;28;20223;-84
2022/10/16 01:15:16;;;;;;;3.90;2.80;;;13.20;99.90;;;;;;4991402;28;20200;-83
2022/10/16 01:17:47;;;;;;;4.03;2.20;;;13.10;99.90;;;;;;4989433;28;20551;-83
2022/10/16 01:20:23;;;;;;;3.13;2.23;;;13.10;99.90;;;;;;4993246;28;20281;-84
2022/10/16 01:23:04;;;;;;;4.93;2.40;;;13.20;99.90;;;;;;4991895;28;20197;-84
2022/10/16 01:25:49;;;;;;;4.57;2.33;;;13.10;99.90;;;;;;4993681;28;20572;-84
2022/10/16 01:28:19;;;;;;;3.93;2.67;;;13.10;99.90;;;;;;4991076;28;20679;-84
2022/10/16 01:30:47;;;;;;;2.70;2.20;;;13.10;99.90;;;;;;4987804;28;20202;-84
2022/10/16 01:33:21;;;;;;;3.43;1.93;;;13.10;99.90;;;;;;4988097;28;20221;-85
2022/10/16 01:35:52;;;;;;;3.10;2.20;;;13.10;99.90;;;;;;4992982;28;20211;-85
2022/10/16 01:38:29;;;;;;;3.97;2.07;;;13.10;99.90;;;;;;4990518;28;20225;-84
2022/10/16 01:41:01;;;;;;;3.93;2.10;;;13.20;99.90;;;;;;4983422;28;20208;-85
2022/10/16 01:43:38;;;;;;;3.60;2.20;;;13.10;99.90;;;;;;4991053;28;20661;-85
2022/10/16 01:46:06;;;;;;;4.57;2.50;;;13.10;99.90;;;;;;5006141;28;20219;-85
2022/10/16 01:48:35;;;;;;;4.47;2.70;;;13.20;99.90;;;;;;4990077;28;20320;-84
2022/10/16 01:51:09;;;;;;;4.60;2.60;;;13.20;99.90;;;;;;4988101;28;20216;-84
2022/10/16 01:53:36;;;;;;;3.93;1.80;;;13.20;99.90;;;;;;4989505;28;20218;-84
2022/10/16 01:56:07;;;;;;;2.43;1.70;;;13.20;99.90;;;;;;4988281;28;20222;-85
2022/10/16 01:58:39;;;;;;;2.03;1.83;;;13.10;99.90;;;;;;4991502;28;20210;-88
2022/10/16 02:01:10;;;;;;;4.23;2.00;;;13.20;99.90;;;;;;4990157;28;20205;-85
2022/10/16 02:03:38;;;;;;;4.23;2.20;;;13.20;99.90;;;;;;4987807;28;20203;-86
2022/10/16 02:06:06;;;;;;;2.37;1.60;;;13.30;99.90;;;;;;5005106;28;20248;-85
2022/10/16 02:08:34;;;;;;;2.60;1.77;;;13.20;99.90;;;;;;4988055;28;20693;-85
2022/10/16 02:11:01;;;;;;;3.47;1.83;;;13.20;99.90;;;;;;4987980;28;20205;-84
2022/10/16 02:13:44;;;;;;;2.07;1.70;;;13.10;99.90;;;;;;5002450;28;20775;-84
2022/10/16 02:16:13;;;;;;;2.60;1.70;;;13.20;99.90;;;;;;4989653;28;20196;-84
2022/10/16 02:18:41;;;;;;;1.80;1.50;;;13.10;99.90;;;;;;4986654;28;20278;-85
2022/10/16 02:21:18;;;;;;;2.73;1.57;;;13.10;99.90;;;;;;4967891;28;20608;-84
2022/10/16 02:23:50;;;;;;;2.17;1.50;;;13.10;99.90;;;;;;4987487;28;20267;-85
2022/10/16 02:26:26;;;;;;;2.30;1.60;;;13.10;99.90;;;;;;4988909;28;20234;-85
2022/10/16 02:28:58;;;;;;;1.77;1.50;;;13.20;99.90;;;;;;5000279;28;20232;-84
2022/10/16 02:31:30;;;;;;;3.43;1.50;;;13.10;99.90;;;;;;5002224;28;20204;-84
2022/10/16 02:33:59;;;;;;;3.40;1.63;;;13.20;99.90;;;;;;5003762;28;20217;-84
2022/10/16 02:36:27;;;;;;;3.53;1.63;;;13.10;99.90;;;;;;4987340;28;20205;-86
2022/10/16 02:38:54;;;;;;;4.10;2.10;;;13.10;99.90;;;;;;4992277;28;20319;-84
2022/10/16 02:41:22;;;;;;;1.80;1.50;;;13.10;99.90;;;;;;4988784;28;20870;-84
2022/10/16 02:43:49;;;;;;;5.57;2.90;;;13.10;99.90;;;;;;4988699;28;20665;-86
2022/10/16 02:46:18;;;;;;;3.30;1.30;;;13.10;99.90;;;;;;4987622;28;20911;-85
2022/10/16 02:48:45;;;;;;;5.47;1.73;;;13.00;99.90;;;;;;4972133;28;20234;-85
2022/10/16 02:51:11;;;;;;;4.63;1.40;;;13.00;99.90;;;;;;4972563;28;20202;-86
2022/10/16 02:53:38;;;;;;;3.07;1.47;;;13.00;99.90;;;;;;4974119;28;20310;-85
2022/10/16 02:56:06;;;;;;;2.30;1.63;;;13.00;99.90;;;;;;4989432;28;20298;-86
2022/10/16 02:58:33;;;;;;;2.50;2.10;;;13.00;99.90;;;;;;4989614;28;20669;-89
2022/10/16 03:01:00;;;;;;;2.53;1.30;;;13.00;99.90;;;;;;4975038;28;20205;-88
2022/10/16 03:03:27;;;;;;;2.03;1.33;;;13.00;99.90;;;;;;4991402;28;20223;-86
2022/10/16 03:05:53;;;;;;;4.27;1.40;;;13.10;99.90;;;;;;4970848;28;20196;-85
2022/10/16 03:08:23;;;;;;;1.53;1.23;;;13.00;99.90;;;;;;4974895;28;20226;-87
2022/10/16 03:10:50;;;;;;;2.70;1.53;;;13.00;99.90;;;;;;4989330;28;20323;-88
2022/10/16 03:13:20;;;;;;;1.57;1.17;;;13.00;99.90;;;;;;4989498;28;20215;-84
2022/10/16 03:15:47;;;;;;;3.13;1.50;;;13.00;99.90;;;;;;4991363;28;20193;-84
2022/10/16 03:18:14;;;;;;;1.93;1.17;;;13.00;99.90;;;;;;4988688;28;20208;-88
2022/10/16 03:20:43;;;;;;;1.83;1.43;;;13.00;99.90;;;;;;4985624;28;20206;-88
2022/10/16 03:23:10;;;;;;;3.40;1.13;;;13.00;99.90;;;;;;4986783;28;20210;-88
2022/10/16 03:25:37;;;;;;;2.27;1.17;;;12.90;99.90;;;;;;5006840;28;20213;-88
2022/10/16 03:28:04;;;;;;;4.40;1.50;;;12.90;99.90;;;;;;4990992;28;20205;-85
2022/10/16 03:30:31;;;;;;;3.50;1.20;;;13.00;99.90;;;;;;4999641;28;20209;-87
2022/10/16 03:32:58;;;;;;;2.80;1.47;;;13.00;99.90;;;;;;4990323;28;20778;-89
2022/10/16 03:35:25;;;;;;;2.10;1.20;;;12.90;99.90;;;;;;4975743;28;20205;-88
2022/10/16 03:37:52;;;;;;;2.40;1.17;;;12.90;99.90;;;;;;4972333;28;20210;-85
2022/10/16 03:40:19;;;;;;;2.30;1.30;;;12.90;99.90;;;;;;4991552;28;20202;-88
2022/10/16 03:42:46;;;;;;;3.27;1.90;;;12.90;99.90;;;;;;4976971;28;20669;-89
2022/10/16 03:45:13;;;;;;;2.53;1.27;;;12.90;99.90;;;;;;4995227;28;20291;-88
2022/10/16 03:47:41;;;;;;;1.73;1.50;;;12.90;99.90;;;;;;4990732;28;20208;-87
2022/10/16 03:50:08;;;;;;;5.30;1.60;;;12.80;99.90;;;;;;4986579;28;20262;-89
2022/10/16 03:52:35;;;;;;;2.80;1.50;;;12.80;99.90;;;;;;4990925;28;20313;-87
2022/10/16 03:55:02;;;;;;;3.23;1.33;;;12.80;99.90;;;;;;4974233;28;20822;-87
2022/10/16 03:57:29;;;;;;;2.00;1.60;;;12.80;99.90;;;;;;4972264;28;20551;-86
2022/10/16 03:59:56;;;;;;;1.70;1.43;;;12.80;99.90;;;;;;4974928;28;20206;-88
2022/10/16 04:02:23;;;;;;;2.43;1.50;;;12.80;99.90;;;;;;4987600;28;20676;-88
2022/10/16 04:04:50;;;;;;;1.20;1.10;;;12.70;99.90;;;;;;4973246;28;20215;-85
2022/10/16 04:07:17;;;;;;;1.33;1.23;;;12.70;99.90;;;;;;4984951;28;20202;-88
2022/10/16 04:09:43;;;;;;;1.87;1.30;;;12.80;99.90;;;;;;4975508;28;20211;-89
2022/10/16 04:12:12;;;;;;;1.60;1.30;;;12.70;99.90;;;;;;4992423;28;20649;-89
2022/10/16 04:14:38;;;;;;;2.10;1.23;;;12.80;99.90;;;;;;4995373;28;20207;-86
2022/10/16 04:17:05;;;;;;;3.67;1.50;;;12.80;99.90;;;;;;4993001;28;20573;-89
2022/10/16 04:19:32;;;;;;;3.20;1.60;;;12.70;99.90;;;;;;4994567;28;20207;-89
2022/10/16 04:21:59;;;;;;;2.37;1.30;;;12.70;99.90;;;;;;4994702;28;20214;-89
2022/10/16 04:24:26;;;;;;;1.57;1.40;;;12.70;99.90;;;;;;4995278;28;20299;-89
2022/10/16 04:26:52;;;;;;;2.63;1.40;;;12.80;99.90;;;;;;4994681;28;20220;-90
2022/10/16 04:29:19;;;;;;;2.70;1.30;;;12.70;99.90;;;;;;5011967;28;20207;-89
2022/10/16 04:31:46;;;;;;;3.17;1.57;;;12.70;99.90;;;;;;4989598;28;20199;-89
2022/10/16 04:34:13;;;;;;;2.60;1.70;;;12.70;99.90;;;;;;4996383;28;20328;-86
2022/10/16 04:36:40;;;;;;;2.33;1.33;;;12.70;99.90;;;;;;4994188;28;20703;-86
2022/10/16 04:39:07;;;;;;;1.77;1.27;;;12.70;99.90;;;;;;4964480;28;20230;-89
2022/10/16 04:41:34;;;;;;;3.90;1.40;;;12.80;99.90;;;;;;4995160;28;20202;-89
2022/10/16 04:44:01;;;;;;;2.00;1.30;;;12.90;99.90;;;;;;4978317;28;20205;-88
2022/10/16 04:46:28;;;;;;;2.23;1.43;;;12.80;99.90;;;;;;4996804;28;20260;-88
2022/10/16 04:48:54;;;;;;;1.77;1.50;;;12.80;99.90;;;;;;4993179;28;20240;-87
2022/10/16 04:51:21;;;;;;;2.07;1.60;;;12.80;99.90;;;;;;5009761;28;20209;-88
2022/10/16 04:53:48;;;;;;;2.27;1.47;;;12.70;99.90;;;;;;4989524;28;20307;-84
2022/10/16 04:56:15;;;;;;;2.40;1.20;;;12.70;99.90;;;;;;4990438;28;20191;-86
2022/10/16 04:58:42;;;;;;;2.83;1.30;;;12.60;99.90;;;;;;4973235;28;20211;-90
2022/10/16 05:01:09;;;;;;;2.20;1.20;;;12.60;99.90;;;;;;4995581;28;20200;-85
2022/10/16 05:03:36;;;;;;;2.60;1.30;;;12.70;99.90;;;;;;4976113;28;20206;-86
2022/10/16 05:06:06;;;;;;;5.00;1.60;;;12.60;99.90;;;;;;5008873;28;20218;-89
2022/10/16 05:08:33;;;;;;;3.93;1.30;;;12.60;99.90;;;;;;4992615;28;20213;-89
2022/10/16 05:11:00;;;;;;;3.60;1.50;;;12.50;99.90;;;;;;4995700;28;20229;-88
2022/10/16 05:13:27;;;;;;;3.10;1.57;;;12.50;99.90;;;;;;5011358;28;20209;-85
2022/10/16 05:15:54;;;;;;;3.53;1.43;;;12.50;99.90;;;;;;4991077;28;20246;-85
2022/10/16 05:18:20;;;;;;;2.23;1.13;;;12.50;99.90;;;;;;4986861;28;20203;-87
2022/10/16 05:20:47;;;;;;;3.93;1.53;;;12.50;99.90;;;;;;4970136;28;20204;-87
2022/10/16 05:23:14;;;;;;;4.37;1.40;;;12.60;99.90;;;;;;4962133;28;20287;-88
2022/10/16 05:25:41;;;;;;;1.87;1.23;;;12.60;99.90;;;;;;4967685;28;20269;-88
2022/10/16 05:28:08;;;;;;;3.87;1.40;;;12.60;99.90;;;;;;4994507;28;20223;-84
2022/10/16 05:30:37;;;;;;;6.53;1.40;;;12.50;99.90;;;;;;4993114;28;20207;-86
2022/10/16 05:33:04;;;;;;;1.43;1.33;;;12.60;99.90;;;;;;4985786;28;20291;-87
2022/10/16 05:35:31;;;;;;;3.10;1.30;;;12.60;99.90;;;;;;4992398;28;20269;-86
2022/10/16 05:37:57;;;;;;;3.17;1.37;;;12.60;99.90;;;;;;4973866;28;20608;-86
2022/10/16 05:40:24;;;;;;;1.80;1.43;;;12.60;99.90;;;;;;5009673;28;20250;-87
2022/10/16 05:42:55;;;;;;;3.60;1.43;;;12.50;99.90;;;;;;5007597;28;20639;-90
2022/10/16 05:45:22;;;;;;;5.83;1.60;;;12.50;99.90;;;;;;4993619;28;21104;-88
2022/10/16 05:47:49;;;;;;;3.93;1.43;;;12.60;99.90;;;;;;4991846;28;20199;-88
2022/10/16 05:50:15;;;;;;;1.60;1.30;;;12.50;99.90;;;;;;4991341;28;20242;-89
2022/10/16 05:52:42;;;;;;;3.93;1.40;;;12.50;99.90;;;;;;4992028;28;20211;-88
2022/10/16 05:55:09;;;;;;;3.03;1.10;;;12.50;99.90;;;;;;4990670;28;20221;-87
2022/10/16 05:57:36;;;;;;;1.40;1.30;;;12.50;99.90;;;;;;4997339;28;20217;-86
2022/10/16 06:00:04;;;;;;;2.80;1.27;;;12.60;99.90;;;;;;4975310;28;20201;-85
2022/10/16 06:02:32;;;;;;;3.97;1.20;;;12.50;99.90;;;;;;4984543;28;20213;-87
2022/10/16 06:04:59;;;;;;;1.90;1.50;;;12.50;99.90;;;;;;5003850;28;20265;-86
2022/10/16 06:07:26;;;;;;;1.43;1.17;;;12.50;99.90;;;;;;4976550;28;20564;-85
2022/10/16 06:09:53;;;;;;;4.37;1.33;;;12.50;99.90;;;;;;4992438;28;20203;-88
2022/10/16 06:12:20;;;;;;;2.40;1.50;;;12.50;99.90;;;;;;4990068;28;20209;-86
2022/10/16 06:14:47;;;;;;;1.90;1.50;;;12.40;99.90;;;;;;4975184;28;20341;-86
2022/10/16 06:17:14;;;;;;;1.57;1.27;;;12.50;99.90;;;;;;4972861;28;20196;-88
2022/10/16 06:19:41;;;;;;;3.10;1.47;;;12.50;99.90;;;;;;5001930;28;20289;-86
2022/10/16 06:22:08;;;;;;;2.97;1.50;;;12.60;99.90;;;;;;4989591;28;20287;-86
2022/10/16 06:24:35;;;;;;;2.27;1.23;;;12.50;99.90;;;;;;5007900;28;20210;-86
2022/10/16 06:27:04;;;;;;;2.40;1.40;;;12.60;99.90;;;;;;4992527;28;20298;-88
2022/10/16 06:29:30;;;;;;;5.10;1.70;;;12.70;99.90;;;;;;4991648;28;20217;-88
2022/10/16 06:31:57;;;;;;;2.30;1.50;;;12.70;99.90;;;;;;4991091;28;20211;-87
2022/10/16 06:34:24;;;;;;;2.03;1.30;;;12.70;99.90;;;;;;4989256;28;20230;-89
2022/10/16 06:36:51;;;;;;;2.17;1.43;;;12.70;99.90;;;;;;4991677;28;20292;-85
2022/10/16 06:39:18;;;;;;;3.23;1.70;;;12.60;99.90;;;;;;4991035;28;20299;-84
2022/10/16 06:41:44;;;;;;;3.60;1.77;;;12.70;99.90;;;;;;5005100;28;20207;-89
2022/10/16 06:44:11;;;;;;;2.20;1.40;;;12.70;99.90;;;;;;4988243;28;21136;-89
2022/10/16 06:46:38;;;;;;;3.43;1.93;;;12.70;99.90;;;;;;5007248;28;20206;-86
2022/10/16 06:49:05;;;;;;;4.10;1.60;;;12.80;99.90;;;;;;5007354;28;21363;-87
2022/10/16 06:51:34;;;;;;;3.60;1.60;;;12.80;99.90;;;;;;4993421;28;20672;-87
2022/10/16 06:54:06;;;;;;;1.90;1.50;;;12.80;99.90;;;;;;4989886;28;20221;-87
2022/10/16 06:56:33;;;;;;;8.77;2.40;;;12.90;99.90;;;;;;4988737;28;20230;-84
2022/10/16 06:59:00;;;;;;;3.33;1.60;;;12.90;99.90;;;;;;4990901;28;20199;-88
2022/10/16 07:01:28;;;;;;;3.13;1.63;;;13.00;99.90;;;;;;4997593;28;20204;-89
2022/10/16 07:03:55;;;;;;;2.50;1.37;;;13.00;99.90;;;;;;4977674;28;20212;-86
2022/10/16 07:06:24;;;;;;;3.03;1.83;;;13.00;99.90;;;;;;4990132;28;20220;-83
2022/10/16 07:08:51;;;;;;;2.70;1.73;;;13.00;99.90;;;;;;4984558;28;20202;-89
2022/10/16 07:11:21;;;;;;;3.07;1.80;;;13.10;99.90;;;;;;4993430;28;20201;-88
2022/10/16 07:13:49;;;;;;;1.93;1.20;;;13.00;99.90;;;;;;4986257;28;20206;-86
2022/10/16 07:16:25;;;;;;;3.40;1.67;;;13.10;99.90;;;;;;4989918;28;20303;-87
2022/10/16 07:18:59;;;;;;;3.87;1.50;;;13.10;99.90;;;;;;5007843;28;20206;-87
2022/10/16 07:21:29;;;;;;;2.20;1.57;;;13.10;99.90;;;;;;4989766;28;20676;-87
2022/10/16 07:23:59;;;;;;;3.60;1.70;;;13.10;99.90;;;;;;4980547;28;20210;-87
2022/10/16 07:26:28;;;;;;;1.53;1.17;;;13.20;99.90;;;;;;4991897;28;20246;-83
2022/10/16 07:28:55;;;;;;;3.57;1.60;;;13.30;99.90;;;;;;4990461;28;20202;-83
2022/10/16 07:31:22;;;;;;;3.87;1.47;;;13.30;99.90;;;;;;4987392;28;20201;-84
2022/10/16 07:33:50;;;;;;;2.60;1.40;;;13.50;99.90;;;;;;4974021;28;20228;-83
2022/10/16 07:36:19;;;;;;;2.17;1.50;;;13.60;99.90;;;;;;5006472;28;20290;-83
2022/10/16 07:38:46;;;;;;;1.77;1.40;;;13.70;99.90;;;;;;4990737;28;20226;-85
2022/10/16 07:41:16;;;;;;;3.47;1.73;;;13.80;99.90;;;;;;5002226;28;20547;-83
2022/10/16 07:43:54;;;;;;;1.50;1.40;;;13.90;99.90;;;;;;4986918;28;20662;-81
2022/10/16 07:46:22;;;;;;;1.97;1.40;;;14.10;99.90;;;;;;4985744;28;20923;-80
2022/10/16 07:48:50;;;;;;;4.80;1.43;;;14.20;99.90;;;;;;4988427;28;20428;-84
2022/10/16 07:51:20;;;;;;;1.73;1.30;;;14.30;99.90;;;;;;4652136;28;10000074;-78
2022/10/16 07:53:48;;;;;;;3.80;1.23;;;14.20;99.90;;;;;;5000443;28;20221;-79
2022/10/16 07:56:16;;;;;;;5.03;1.40;;;14.20;99.90;;;;;;5002237;28;20208;-79
2022/10/16 07:58:43;;;;;;;1.83;1.30;;;14.10;99.90;;;;;;4985957;28;20288;-79
2022/10/16 08:01:14;;;;;;;3.40;1.50;;;14.10;99.90;;;;;;4987806;28;20200;-78
2022/10/16 08:03:45;;;;;;;2.83;1.40;;;14.00;99.90;;;;;;4984112;28;20200;-79
2022/10/16 08:06:13;;;;;;;4.63;1.53;;;14.10;99.90;;;;;;4982490;28;20225;-78
2022/10/16 08:08:40;;;;;;;5.37;1.37;;;14.20;99.90;;;;;;4985130;28;20190;-78
2022/10/16 08:11:07;;;;;;;2.73;1.47;;;14.60;99.90;;;;;;5005715;28;20656;-79
2022/10/16 08:13:35;;;;;;;3.53;1.77;;;14.90;99.90;;;;;;4990280;28;20267;-79
2022/10/16 08:16:03;;;;;;;1.97;1.17;;;15.20;99.90;;;;;;4989559;28;20223;-79
2022/10/16 08:18:30;;;;;;;5.10;1.30;;;15.40;99.90;;;;;;4987693;28;20221;-77
2022/10/16 08:20:59;;;;;;;2.53;1.30;;;15.60;99.90;;;;;;4971715;28;20209;-78
2022/10/16 08:23:27;;;;;;;3.40;1.27;;;15.80;99.90;;;;;;4986302;28;20290;-79
2022/10/16 08:25:55;;;;;;;3.03;1.20;;;15.90;99.90;;;;;;4985120;28;20209;-78
2022/10/16 08:28:22;;;;;;;3.23;1.50;;;16.20;99.90;;;;;;4973709;28;20672;-78
2022/10/16 08:30:49;;;;;;;3.27;1.30;;;16.30;99.90;;;;;;5000179;28;20376;-78
2022/10/16 08:33:16;;;;;;;4.40;1.20;;;16.40;99.90;;;;;;4990316;28;20214;-78
2022/10/16 08:35:50;;;;;;;4.20;1.10;;;16.40;99.90;;;;;;4986884;28;20654;-78
2022/10/16 08:38:17;;;;;;;4.67;1.53;;;16.30;99.90;;;;;;4990882;28;20231;-78
2022/10/16 08:40:44;;;;;;;8.93;1.37;;;16.30;99.90;;;;;;4992243;28;20517;-77
2022/10/16 08:43:33;;;;;;;4.60;1.90;;;16.80;99.90;;;;;;4990850;28;20240;-78
2022/10/16 08:46:00;;;;;;;4.03;1.77;;;17.00;99.90;;;;;;4987407;28;20257;-79
2022/10/16 08:48:38;;;;;;;5.30;1.33;;;17.00;99.90;;;;;;4985282;28;20200;-78
2022/10/16 08:51:09;;;;;;;4.80;1.20;;;16.80;99.90;;;;;;4988195;28;20226;-78
2022/10/16 08:53:39;;;;;;;3.47;1.47;;;16.70;99.90;;;;;;4988956;28;20232;-79
2022/10/16 08:56:06;;;;;;;5.20;1.27;;;17.10;99.90;;;;;;4987172;28;20288;-78
2022/10/16 08:58:34;;;;;;;1.97;1.20;;;16.90;99.90;;;;;;4988641;28;20204;-78
2022/10/16 09:01:10;;;;;;;5.20;1.47;;;16.80;99.90;;;;;;4983335;28;20350;-78
2022/10/16 09:03:58;;;;;;;2.43;1.40;;;16.80;99.90;;;;;;4992034;28;20203;-78
2022/10/16 09:06:30;;;;;;;6.67;1.50;;;16.90;99.90;;;;;;4984954;28;20239;-79
2022/10/16 09:09:09;;;;;;;2.00;1.10;;;16.70;99.90;;;;;;4987404;28;20208;-79
2022/10/16 09:11:55;;;;;;;3.60;1.30;;;16.80;99.90;;;;;;4988072;28;20660;-78
2022/10/16 09:14:49;;;;;;;5.63;1.20;;;16.90;99.90;;;;;;4984901;28;20211;-78
2022/10/16 09:17:47;;;;;;;3.50;1.10;;;17.40;99.90;;;;;;4979019;28;20299;-79
2022/10/16 09:20:27;;;;;;;4.53;1.10;;;17.30;99.90;;;;;;4998405;28;20314;-79
2022/10/16 09:23:03;;;;;;;6.10;1.07;;;17.10;99.90;;;;;;4985592;28;20662;-79
2022/10/16 09:25:31;;;;;;;4.70;0.93;;;17.10;99.90;;;;;;4992151;28;20212;-79
2022/10/16 09:27:58;;;;;;;5.40;1.50;;;17.40;99.90;;;;;;4986371;28;20232;-80
2022/10/16 09:30:29;;;;;;;3.63;1.13;;;17.20;99.90;;;;;;4988347;28;20206;-79
2022/10/16 09:32:58;;;;;;;12.53;3.67;;;17.50;99.90;;;;;;4977829;28;20217;-79
2022/10/16 09:35:53;;;;;;;3.30;1.63;;;17.60;99.90;;;;;;4986921;28;20229;-79
2022/10/16 09:38:33;;;;;;;6.73;1.30;;;17.70;28.60;;;;;;4986957;28;20345;-78
2022/10/16 09:41:02;;;;;;;5.13;1.93;;;17.70;97.00;;;;;;4985808;28;20225;-78
2022/10/16 09:43:39;;;;;;;4.57;1.60;;;17.50;99.90;;;;;;4985487;28;20200;-78
2022/10/16 09:46:08;;;;;;;5.13;1.33;;;17.70;99.90;;;;;;4986974;28;20203;-79
2022/10/16 09:48:47;;;;;;;5.67;1.20;;;17.60;99.90;;;;;;4986082;28;20313;-77
2022/10/16 09:51:36;;;;;;;3.97;1.30;;;17.60;99.90;;;;;;4989624;28;20593;-78
2022/10/16 09:54:15;;;;;;;8.93;2.40;;;17.80;99.90;;;;;;4984802;28;20250;-79
2022/10/16 09:56:48;;;;;;;5.33;1.13;;;17.90;99.90;;;;;;4990187;28;20201;-79
2022/10/16 09:59:18;;;;;;;6.40;1.23;;;17.80;99.90;;;;;;4986290;28;20216;-79
2022/10/16 10:01:50;;;;;;;5.70;1.77;;;17.80;99.90;;;;;;4987705;28;20210;-79
2022/10/16 10:04:23;;;;;;;7.73;2.07;;;17.90;99.90;;;;;;4988001;28;20241;-79
2022/10/16 10:06:55;;;;;;;9.73;1.33;;;17.90;99.90;;;;;;4985108;28;20219;-79
2022/10/16 10:09:28;;;;;;;5.27;1.40;;;17.80;99.90;;;;;;4982488;28;20202;-79
2022/10/16 10:11:57;;;;;;;6.13;1.47;;;17.80;99.90;;;;;;4981681;28;20678;-79
2022/10/16 10:14:38;;;;;;;10.87;2.40;;;17.90;99.90;;;;;;4982446;28;20201;-79
2022/10/16 10:17:05;;;;;;;6.50;1.37;;;17.60;99.90;;;;;;4981938;28;20208;-78
2022/10/16 10:19:47;;;;;;;5.60;1.63;;;17.60;99.90;;;;;;4990408;28;20608;-77
2022/10/16 10:22:21;;;;;;;3.83;1.30;;;17.60;99.90;;;;;;4985392;28;20679;-79
2022/10/16 10:25:23;;;;;;;9.70;1.73;;;17.80;99.90;;;;;;4983547;28;20535;-78
2022/10/16 10:28:02;;;;;;;9.80;1.20;;;18.10;99.90;;;;;;4953282;28;20216;-79
2022/10/16 10:31:03;;;;;;;6.77;1.63;;;18.20;99.90;;;;;;4975868;28;20981;-78
2022/10/16 10:34:04;;;;;;;5.20;1.20;;;18.20;99.90;;;;;;4985961;28;20203;-79
2022/10/16 10:36:36;;;;;;;9.53;1.50;;;18.40;99.90;;;;;;4985745;28;20231;-80
2022/10/16 10:39:19;;;;;;;9.00;1.23;;;18.10;99.90;;;;;;4981139;28;20231;-79
2022/10/16 10:42:03;;;;;;;11.07;1.80;;;18.00;99.90;;;;;;4980839;28;20552;-80
2022/10/16 10:44:48;;;;;;;6.93;1.37;;;18.10;99.90;;;;;;4978744;28;20245;-79
2022/10/16 10:47:54;;;;;;;6.80;1.30;;;17.70;99.90;;;;;;4980375;28;20300;-79
2022/10/16 10:50:44;;;;;;;4.57;1.33;;;17.90;99.90;;;;;;4984841;28;20241;-79
2022/10/16 10:53:18;;;;;;;4.13;1.70;;;17.70;99.90;;;;;;4984380;28;20207;-79
2022/10/16 10:55:47;;;;;;;7.53;1.43;;;17.80;99.90;;;;;;4985584;28;20216;-79
2022/10/16 10:58:54;;;;;;;8.73;1.60;;;17.70;99.90;;;;;;4985302;28;20216;-79
2022/10/16 11:01:37;;;;;;;10.70;1.43;;;17.50;99.90;;;;;;5000024;28;20648;-79
2022/10/16 11:04:39;;;;;;;11.00;1.60;;;17.50;99.90;;;;;;4979949;28;20908;-78
2022/10/16 11:07:15;;;;;;;8.00;1.40;;;17.60;99.90;;;;;;4982243;28;20291;-78
2022/10/16 11:09:48;;;;;;;5.30;1.20;;;17.60;99.90;;;;;;4980140;28;20220;-77
2022/10/16 11:12:21;;;;;;;7.77;1.00;;;17.60;99.90;;;;;;4986778;28;20571;-78
2022/10/16 11:14:56;;;;;;;8.83;1.43;;;17.60;99.90;;;;;;4980879;28;20202;-78
2022/10/16 11:18:02;;;;;;;9.43;1.70;;;17.70;99.90;;;;;;4990551;28;20198;-77
2022/10/16 11:20:39;;;;;;;5.87;1.23;;;17.80;99.90;;;;;;4986959;28;20298;-78
2022/10/16 11:23:41;;;;;;;6.80;1.60;;;17.60;99.90;;;;;;4980447;28;20224;-77
2022/10/16 11:26:18;;;;;;;11.30;1.30;;;17.60;99.90;;;;;;4974819;28;20582;-78
2022/10/16 11:28:55;;;;;;;3.87;1.67;;;17.60;99.90;;;;;;4987850;28;20207;-78
2022/10/16 11:31:29;;;;;;;8.33;1.50;;;17.70;99.90;;;;;;4989609;28;20203;-77
2022/10/16 11:34:21;;;;;;;8.67;1.63;;;17.80;99.90;;;;;;4993815;28;20209;-78
2022/10/16 11:37:02;;;;;;;7.40;1.70;;;17.70;99.90;;;;;;4975671;28;20240;-78
2022/10/16 11:39:30;;;;;;;10.17;1.80;;;17.70;99.90;;;;;;5001175;28;20223;-77
2022/10/16 11:42:13;;;;;;;8.97;1.60;;;17.70;99.90;;;;;;4989694;28;20204;-77
2022/10/16 11:45:07;;;;;;;9.37;1.43;;;18.20;99.90;;;;;;4989653;28;20216;-77
2022/10/16 11:47:44;;;;;;;5.47;1.40;;;18.00;99.90;;;;;;4989203;28;20600;-77
2022/10/16 11:50:51;;;;;;;7.80;1.90;;;18.10;99.90;;;;;;4985031;28;20244;-77
2022/10/16 11:53:50;;;;;;;9.53;1.80;;;18.00;99.90;;;;;;4950960;28;20303;-77
2022/10/16 11:56:20;;;;;;;10.13;1.93;;;17.70;99.90;;;;;;4988369;28;20235;-77
2022/10/16 11:59:02;;;;;;;5.57;1.23;;;18.30;99.90;;;;;;4990632;28;20659;-79
2022/10/16 12:01:44;;;;;;;7.57;1.37;;;19.10;99.90;;;;;;4989462;28;20664;-78
2022/10/16 12:04:20;;;;;;;7.50;2.20;;;19.40;99.90;;;;;;4989111;28;20209;-78
2022/10/16 12:06:46;;;;;;;9.40;1.50;;;19.60;99.90;;;;;;4988168;28;20211;-78
2022/10/16 12:09:25;;;;;;;7.13;1.30;;;19.60;99.90;;;;;;5004644;28;21019;-77
2022/10/16 12:11:52;;;;;;;6.23;1.60;;;19.30;99.90;;;;;;4989649;28;20200;-79
2022/10/16 12:14:35;;;;;;;7.17;1.83;;;18.90;99.90;;;;;;4989945;28;20619;-78
2022/10/16 12:17:26;;;;;;;7.07;1.87;;;18.80;99.90;;;;;;4986787;28;20233;-79
2022/10/16 12:20:12;;;;;;;7.87;1.57;;;18.50;99.90;;;;;;4987295;28;20297;-78
2022/10/16 12:22:50;;;;;;;6.07;1.37;;;18.50;99.90;;;;;;4983845;28;20302;-78
2022/10/16 12:25:24;;;;;;;6.37;1.30;;;18.40;99.90;;;;;;4986615;28;20323;-79
2022/10/16 12:28:26;;;;;;;11.87;2.23;;;19.00;99.90;;;;;;4990188;28;20197;-79
2022/10/16 12:30:59;;;;;;;5.17;1.53;;;19.90;99.90;;;;;;4984152;28;20288;-79
2022/10/16 12:33:30;;;;;;;7.43;1.73;;;19.90;99.90;;;;;;4987538;28;20304;-79
2022/10/16 12:36:00;;;;;;;7.13;1.50;;;20.00;99.90;;;;;;4992536;28;20317;-79
2022/10/16 12:38:46;;;;;;;5.40;1.47;;;20.20;99.90;;;;;;4991854;28;20237;-78
2022/10/16 12:41:34;;;;;;;6.60;1.40;;;20.30;99.90;;;;;;4994497;28;20228;-78
2022/10/16 12:44:02;;;;;;;6.20;1.63;;;20.60;99.90;;;;;;4993288;28;20194;-78
2022/10/16 12:46:29;;;;;;;5.53;1.30;;;20.20;99.90;;;;;;5007901;28;20254;-78
2022/10/16 12:49:15;;;;;;;4.73;1.20;;;20.90;99.90;;;;;;4992987;28;20237;-78
2022/10/16 12:51:43;;;;;;;9.00;1.67;;;21.20;99.90;;;;;;4992626;28;20198;-78
2022/10/16 12:54:22;;;;;;;8.93;1.60;;;21.20;99.90;;;;;;4992549;28;20202;-79
2022/10/16 12:57:07;;;;;;;7.80;1.40;;;21.00;99.90;;;;;;4998845;28;20236;-78
2022/10/16 12:59:42;;;;;;;5.90;1.70;;;21.20;99.90;;;;;;5005266;28;20251;-79
2022/10/16 13:02:15;;;;;;;7.53;1.50;;;20.70;99.90;;;;;;4988644;28;20213;-78
2022/10/16 13:05:13;;;;;;;6.97;1.40;;;20.70;99.90;;;;;;4990545;28;20194;-79
2022/10/16 13:07:59;;;;;;;4.07;1.50;;;21.30;99.90;;;;;;4992206;28;20282;-79
2022/10/16 13:10:34;;;;;;;4.53;1.40;;;21.20;99.90;;;;;;4992231;28;20723;-78
2022/10/16 13:13:11;;;;;;;7.00;1.77;;;21.20;99.90;;;;;;5002638;28;20244;-78